Aeroporto :
LOGIN :

Iscrizione | Disclaimer

   EN    FR    IT 

 










Sommario :    VFR   VFR Marginale   IFR   IFR Intensivo   IFR Molto Intensivo
Visibilità : 
Base nubi : 
>= 8 km
>= 3000ft
5 / 8 km
1000 / 3000 ft
1500m / 5 km
500 / 1000 ft
800 / 1500m
200 / 500 ft
< 800m
< 200 ft
Simboli :   Temporali  Nebbia  Neve Forte  Precipitazioni Forti  Vento > 20 kt
SIGMETs :   Varie  Temporali  Ghiacco  Turbolenza  Onda orograficha  Ceneri Vulcaniche






- Altitudine del aeroporto : 302 ft


LFPM - Melun Villaroche

ULTIMO METAR :
  • 190300Z AUTO 36009KT 9999 OVC008 16/15 Q1013

METARs OBSOLETI :
  • 190230Z AUTO 36006KT 9999 OVC009/// //////TCU 16/15 Q1013
  • 190200Z AUTO 34004KT 9999 BKN009/// OVC150/// //////TCU 16/16 Q1013
  • 190130Z AUTO 35005KT 9999 FEW008/// SCT130/// BKN150/// ///TCU 16/15 Q1013
  • 190100Z AUTO 36007KT 9999 SCT009 OVC150 16/15 Q1013
  • 190030Z AUTO 36005KT 9999 FEW008/// BKN012/// OVC150/// //////CB 17/15 Q1013
  • 190000Z AUTO 03004KT 350V080 9999 OVC010/// ///TCU 17/16 Q1013
  • 182330Z AUTO 36005KT 340V040 9999 OVC010/// ///TCU 17/16 Q1013
  • 182300Z AUTO 01007KT 340V050 9999 OVC010/// ///CB 17/16 Q1013

Previsioni scadute.
ATIS : +33 1 64 14 28 44



MetMap, La meteo Aeronautica in un colpo d'occhio ! - Copyright ORBIFLY Dicembre 2007 - Disclaimer

ORBIFLY MET'MAP TEAM :

Programmazione e sviluppo : Alexandra Zaïnal
Concezione : Baudouin d'Aumeries
Supporto tecnico e logistico : Manuel Goepfert
Aiuto : Marc-Olivier Méhu
Aiuto per la traduzione : Arnaldo La Scala




FONTI E CREDITI :

   NOAA